sensor_id;sensor_type;location;lat;lon;timestamp;temperature;humidity
54158;DHT22;40065;49.894;10.358;2023-04-25T00:01:12;9.60;99.90
54158;DHT22;40065;49.894;10.358;2023-04-25T00:06:14;9.70;99.90
54158;DHT22;40065;49.894;10.358;2023-04-25T00:11:16;9.80;99.90
54158;DHT22;40065;49.894;10.358;2023-04-25T00:16:18;9.80;99.90
54158;DHT22;40065;49.894;10.358;2023-04-25T00:21:20;9.70;99.90
54158;DHT22;40065;49.894;10.358;2023-04-25T00:26:22;9.80;99.90
54158;DHT22;40065;49.894;10.358;2023-04-25T00:31:24;9.90;99.90
54158;DHT22;40065;49.894;10.358;2023-04-25T00:36:26;9.90;99.90
54158;DHT22;40065;49.894;10.358;2023-04-25T00:41:29;9.90;99.90
54158;DHT22;40065;49.894;10.358;2023-04-25T00:46:32;10.00;99.90
54158;DHT22;40065;49.894;10.358;2023-04-25T00:51:34;9.90;99.90
54158;DHT22;40065;49.894;10.358;2023-04-25T00:56:37;9.90;99.90
54158;DHT22;40065;49.894;10.358;2023-04-25T01:01:39;10.00;99.90
54158;DHT22;40065;49.894;10.358;2023-04-25T01:06:41;10.10;99.90
54158;DHT22;40065;49.894;10.358;2023-04-25T01:11:43;10.00;99.90
54158;DHT22;40065;49.894;10.358;2023-04-25T01:16:45;10.10;99.90
54158;DHT22;40065;49.894;10.358;2023-04-25T01:21:46;9.90;99.90
54158;DHT22;40065;49.894;10.358;2023-04-25T01:26:49;9.90;99.90
54158;DHT22;40065;49.894;10.358;2023-04-25T01:31:56;10.00;99.90
54158;DHT22;40065;49.894;10.358;2023-04-25T01:37:00;9.90;99.90
54158;DHT22;40065;49.894;10.358;2023-04-25T01:42:03;10.00;99.90
54158;DHT22;40065;49.894;10.358;2023-04-25T01:47:05;9.90;99.90
54158;DHT22;40065;49.894;10.358;2023-04-25T01:52:07;9.90;99.90
54158;DHT22;40065;49.894;10.358;2023-04-25T01:57:11;9.90;99.90
54158;DHT22;40065;49.894;10.358;2023-04-25T02:02:15;9.90;99.90
54158;DHT22;40065;49.894;10.358;2023-04-25T02:07:18;9.90;99.90
54158;DHT22;40065;49.894;10.358;2023-04-25T02:12:27;9.90;99.90
54158;DHT22;40065;49.894;10.358;2023-04-25T02:17:55;9.90;99.90
54158;DHT22;40065;49.894;10.358;2023-04-25T02:22:57;9.80;99.90
54158;DHT22;40065;49.894;10.358;2023-04-25T02:27:59;9.60;99.90
54158;DHT22;40065;49.894;10.358;2023-04-25T02:33:01;9.70;99.90
54158;DHT22;40065;49.894;10.358;2023-04-25T02:38:03;9.50;99.90
54158;DHT22;40065;49.894;10.358;2023-04-25T02:43:07;9.40;99.90
54158;DHT22;40065;49.894;10.358;2023-04-25T02:48:09;9.30;99.90
54158;DHT22;40065;49.894;10.358;2023-04-25T02:53:11;9.30;99.90
54158;DHT22;40065;49.894;10.358;2023-04-25T02:58:19;9.40;99.90
54158;DHT22;40065;49.894;10.358;2023-04-25T03:03:24;9.40;99.90
54158;DHT22;40065;49.894;10.358;2023-04-25T03:08:26;9.20;99.90
54158;DHT22;40065;49.894;10.358;2023-04-25T03:13:34;9.20;99.90
54158;DHT22;40065;49.894;10.358;2023-04-25T03:18:36;9.10;99.90
54158;DHT22;40065;49.894;10.358;2023-04-25T03:23:38;9.10;99.90
54158;DHT22;40065;49.894;10.358;2023-04-25T03:28:41;9.10;99.90
54158;DHT22;40065;49.894;10.358;2023-04-25T03:33:43;9.00;99.90
54158;DHT22;40065;49.894;10.358;2023-04-25T03:38:45;9.10;99.90
54158;DHT22;40065;49.894;10.358;2023-04-25T03:43:49;9.00;99.90
54158;DHT22;40065;49.894;10.358;2023-04-25T03:48:52;9.00;99.90
54158;DHT22;40065;49.894;10.358;2023-04-25T03:53:58;9.10;99.90
54158;DHT22;40065;49.894;10.358;2023-04-25T03:59:09;9.00;99.90
54158;DHT22;40065;49.894;10.358;2023-04-25T04:04:11;9.00;99.90
54158;DHT22;40065;49.894;10.358;2023-04-25T04:09:13;8.90;99.90
54158;DHT22;40065;49.894;10.358;2023-04-25T04:14:17;9.00;99.90
54158;DHT22;40065;49.894;10.358;2023-04-25T04:19:21;9.00;99.90
54158;DHT22;40065;49.894;10.358;2023-04-25T04:24:38;9.00;99.90
54158;DHT22;40065;49.894;10.358;2023-04-25T04:29:42;9.00;99.90
54158;DHT22;40065;49.894;10.358;2023-04-25T04:34:57;9.00;99.90
54158;DHT22;40065;49.894;10.358;2023-04-25T04:40:00;8.90;99.90
54158;DHT22;40065;49.894;10.358;2023-04-25T04:45:17;9.00;99.90
54158;DHT22;40065;49.894;10.358;2023-04-25T04:50:40;9.00;99.90
54158;DHT22;40065;49.894;10.358;2023-04-25T04:55:52;8.90;99.90
54158;DHT22;40065;49.894;10.358;2023-04-25T05:01:20;9.00;99.90
54158;DHT22;40065;49.894;10.358;2023-04-25T05:06:48;9.10;99.90
54158;DHT22;40065;49.894;10.358;2023-04-25T05:12:16;9.10;99.90
54158;DHT22;40065;49.894;10.358;2023-04-25T05:17:26;9.20;99.90
54158;DHT22;40065;49.894;10.358;2023-04-25T05:22:34;9.40;99.90
54158;DHT22;40065;49.894;10.358;2023-04-25T05:27:46;9.60;99.90
54158;DHT22;40065;49.894;10.358;2023-04-25T05:33:07;9.60;99.90
54158;DHT22;40065;49.894;10.358;2023-04-25T05:38:09;9.60;99.90
54158;DHT22;40065;49.894;10.358;2023-04-25T05:43:43;9.50;99.90
54158;DHT22;40065;49.894;10.358;2023-04-25T05:49:09;9.50;99.90
54158;DHT22;40065;49.894;10.358;2023-04-25T05:54:17;9.70;99.90
54158;DHT22;40065;49.894;10.358;2023-04-25T05:59:19;10.50;99.90
54158;DHT22;40065;49.894;10.358;2023-04-25T06:04:22;11.00;99.90
54158;DHT22;40065;49.894;10.358;2023-04-25T06:09:24;11.90;99.90
54158;DHT22;40065;49.894;10.358;2023-04-25T06:14:28;17.30;99.90
54158;DHT22;40065;49.894;10.358;2023-04-25T06:19:30;18.70;97.30
54158;DHT22;40065;49.894;10.358;2023-04-25T06:24:32;15.30;99.80
54158;DHT22;40065;49.894;10.358;2023-04-25T06:29:37;12.90;99.90
54158;DHT22;40065;49.894;10.358;2023-04-25T06:34:39;14.00;99.90
54158;DHT22;40065;49.894;10.358;2023-04-25T06:39:41;16.30;99.90
54158;DHT22;40065;49.894;10.358;2023-04-25T06:44:43;18.70;95.30
54158;DHT22;40065;49.894;10.358;2023-04-25T06:49:46;20.80;91.90
54158;DHT22;40065;49.894;10.358;2023-04-25T06:54:48;20.40;89.80
54158;DHT22;40065;49.894;10.358;2023-04-25T07:00:06;19.90;90.70
54158;DHT22;40065;49.894;10.358;2023-04-25T07:05:11;16.20;90.10
54158;DHT22;40065;49.894;10.358;2023-04-25T07:10:13;16.00;93.30
54158;DHT22;40065;49.894;10.358;2023-04-25T07:15:15;14.40;94.20
54158;DHT22;40065;49.894;10.358;2023-04-25T07:20:21;13.90;95.90
54158;DHT22;40065;49.894;10.358;2023-04-25T07:25:23;14.90;94.60
54158;DHT22;40065;49.894;10.358;2023-04-25T07:30:25;15.60;93.10
54158;DHT22;40065;49.894;10.358;2023-04-25T07:35:27;19.40;87.00
54158;DHT22;40065;49.894;10.358;2023-04-25T07:40:29;19.00;82.90
54158;DHT22;40065;49.894;10.358;2023-04-25T07:45:37;18.20;87.90
54158;DHT22;40065;49.894;10.358;2023-04-25T07:50:39;18.20;87.80
54158;DHT22;40065;49.894;10.358;2023-04-25T07:55:41;20.30;82.80
54158;DHT22;40065;49.894;10.358;2023-04-25T08:00:50;21.10;80.00
54158;DHT22;40065;49.894;10.358;2023-04-25T08:06:07;19.60;77.80
54158;DHT22;40065;49.894;10.358;2023-04-25T08:11:18;20.10;77.70
54158;DHT22;40065;49.894;10.358;2023-04-25T08:16:19;17.70;80.00
54158;DHT22;40065;49.894;10.358;2023-04-25T08:21:21;17.50;85.60
54158;DHT22;40065;49.894;10.358;2023-04-25T08:26:28;16.50;86.90
54158;DHT22;40065;49.894;10.358;2023-04-25T08:31:31;14.60;89.90
54158;DHT22;40065;49.894;10.358;2023-04-25T08:36:36;13.70;91.60
54158;DHT22;40065;49.894;10.358;2023-04-25T08:42:05;13.80;91.70
54158;DHT22;40065;49.894;10.358;2023-04-25T08:47:11;13.70;91.70
54158;DHT22;40065;49.894;10.358;2023-04-25T08:52:22;15.60;88.00
54158;DHT22;40065;49.894;10.358;2023-04-25T08:57:26;14.80;90.90
54158;DHT22;40065;49.894;10.358;2023-04-25T09:02:29;14.80;90.10
54158;DHT22;40065;49.894;10.358;2023-04-25T09:07:32;16.60;87.00
54158;DHT22;40065;49.894;10.358;2023-04-25T09:12:35;17.30;81.40
54158;DHT22;40065;49.894;10.358;2023-04-25T09:17:41;16.20;85.00
54158;DHT22;40065;49.894;10.358;2023-04-25T09:22:46;15.70;85.50
54158;DHT22;40065;49.894;10.358;2023-04-25T09:27:50;13.70;90.00
54158;DHT22;40065;49.894;10.358;2023-04-25T09:33:09;14.50;90.10
54158;DHT22;40065;49.894;10.358;2023-04-25T09:38:14;16.50;85.30
54158;DHT22;40065;49.894;10.358;2023-04-25T09:43:45;17.00;84.50
54158;DHT22;40065;49.894;10.358;2023-04-25T09:48:50;17.60;84.20
54158;DHT22;40065;49.894;10.358;2023-04-25T09:53:59;17.90;80.30
54158;DHT22;40065;49.894;10.358;2023-04-25T09:59:22;17.10;81.00
54158;DHT22;40065;49.894;10.358;2023-04-25T10:04:25;17.60;81.30
54158;DHT22;40065;49.894;10.358;2023-04-25T10:09:37;18.40;78.00
54158;DHT22;40065;49.894;10.358;2023-04-25T10:14:41;16.40;81.90
54158;DHT22;40065;49.894;10.358;2023-04-25T10:19:43;15.40;82.90
54158;DHT22;40065;49.894;10.358;2023-04-25T10:24:46;14.60;83.80
54158;DHT22;40065;49.894;10.358;2023-04-25T10:30:02;14.50;85.40
54158;DHT22;40065;49.894;10.358;2023-04-25T10:35:16;13.60;88.20
54158;DHT22;40065;49.894;10.358;2023-04-25T10:40:22;13.30;89.50
54158;DHT22;40065;49.894;10.358;2023-04-25T10:45:24;13.40;90.00
54158;DHT22;40065;49.894;10.358;2023-04-25T10:50:37;14.60;88.80
54158;DHT22;40065;49.894;10.358;2023-04-25T10:55:49;14.70;86.60
54158;DHT22;40065;49.894;10.358;2023-04-25T11:00:52;14.70;85.70
54158;DHT22;40065;49.894;10.358;2023-04-25T11:05:59;14.40;86.50
54158;DHT22;40065;49.894;10.358;2023-04-25T11:11:02;14.50;86.40
54158;DHT22;40065;49.894;10.358;2023-04-25T11:16:07;13.90;87.00
54158;DHT22;40065;49.894;10.358;2023-04-25T11:21:14;13.70;90.20
54158;DHT22;40065;49.894;10.358;2023-04-25T11:26:16;13.80;90.20
54158;DHT22;40065;49.894;10.358;2023-04-25T11:31:20;14.10;89.40
54158;DHT22;40065;49.894;10.358;2023-04-25T11:36:26;14.10;90.10
54158;DHT22;40065;49.894;10.358;2023-04-25T11:41:28;13.50;90.90
54158;DHT22;40065;49.894;10.358;2023-04-25T11:46:30;13.00;90.80
54158;DHT22;40065;49.894;10.358;2023-04-25T11:51:41;12.50;90.30
54158;DHT22;40065;49.894;10.358;2023-04-25T11:56:44;12.70;91.30
54158;DHT22;40065;49.894;10.358;2023-04-25T12:01:49;12.80;92.40
54158;DHT22;40065;49.894;10.358;2023-04-25T12:06:53;12.80;91.40
54158;DHT22;40065;49.894;10.358;2023-04-25T12:11:57;12.90;91.30
54158;DHT22;40065;49.894;10.358;2023-04-25T12:17:01;13.20;90.80
54158;DHT22;40065;49.894;10.358;2023-04-25T12:22:22;13.50;88.30
54158;DHT22;40065;49.894;10.358;2023-04-25T12:27:25;14.40;88.50
54158;DHT22;40065;49.894;10.358;2023-04-25T12:32:28;13.90;90.00
54158;DHT22;40065;49.894;10.358;2023-04-25T12:37:30;13.30;89.10
54158;DHT22;40065;49.894;10.358;2023-04-25T12:42:32;13.10;90.10
54158;DHT22;40065;49.894;10.358;2023-04-25T12:47:34;13.30;90.50
54158;DHT22;40065;49.894;10.358;2023-04-25T12:52:36;13.60;88.60
54158;DHT22;40065;49.894;10.358;2023-04-25T12:57:38;14.30;86.00
54158;DHT22;40065;49.894;10.358;2023-04-25T13:02:40;14.40;88.00
54158;DHT22;40065;49.894;10.358;2023-04-25T13:07:43;14.10;86.70
54158;DHT22;40065;49.894;10.358;2023-04-25T13:12:45;14.00;87.30
54158;DHT22;40065;49.894;10.358;2023-04-25T13:17:47;14.10;88.60
54158;DHT22;40065;49.894;10.358;2023-04-25T13:22:49;13.80;88.90
54158;DHT22;40065;49.894;10.358;2023-04-25T13:27:51;13.10;90.30
54158;DHT22;40065;49.894;10.358;2023-04-25T13:32:54;13.00;91.30
54158;DHT22;40065;49.894;10.358;2023-04-25T13:37:58;13.10;91.50
54158;DHT22;40065;49.894;10.358;2023-04-25T13:43:00;14.60;91.40
54158;DHT22;40065;49.894;10.358;2023-04-25T13:48:02;15.60;90.60
54158;DHT22;40065;49.894;10.358;2023-04-25T13:53:04;15.50;87.00
54158;DHT22;40065;49.894;10.358;2023-04-25T13:58:07;15.80;86.10
54158;DHT22;40065;49.894;10.358;2023-04-25T14:03:09;15.10;86.40
54158;DHT22;40065;49.894;10.358;2023-04-25T14:08:12;14.20;87.00
54158;DHT22;40065;49.894;10.358;2023-04-25T14:13:13;13.70;87.50
54158;DHT22;40065;49.894;10.358;2023-04-25T14:18:15;13.20;87.70
54158;DHT22;40065;49.894;10.358;2023-04-25T14:23:17;12.80;90.80
54158;DHT22;40065;49.894;10.358;2023-04-25T14:28:19;13.30;88.70
54158;DHT22;40065;49.894;10.358;2023-04-25T14:33:22;13.60;86.90
54158;DHT22;40065;49.894;10.358;2023-04-25T14:38:23;13.90;85.50
54158;DHT22;40065;49.894;10.358;2023-04-25T14:43:27;13.70;84.70
54158;DHT22;40065;49.894;10.358;2023-04-25T14:48:29;13.70;85.60
54158;DHT22;40065;49.894;10.358;2023-04-25T14:53:31;13.40;85.60
54158;DHT22;40065;49.894;10.358;2023-04-25T14:58:33;13.40;84.50
54158;DHT22;40065;49.894;10.358;2023-04-25T15:03:35;13.60;84.90
54158;DHT22;40065;49.894;10.358;2023-04-25T15:08:37;13.60;82.50
54158;DHT22;40065;49.894;10.358;2023-04-25T15:13:39;13.80;83.40
54158;DHT22;40065;49.894;10.358;2023-04-25T15:18:41;13.60;83.10
54158;DHT22;40065;49.894;10.358;2023-04-25T15:23:43;13.30;82.60
54158;DHT22;40065;49.894;10.358;2023-04-25T15:28:45;13.30;85.00
54158;DHT22;40065;49.894;10.358;2023-04-25T15:33:47;12.90;83.60
54158;DHT22;40065;49.894;10.358;2023-04-25T15:38:49;12.70;82.80
54158;DHT22;40065;49.894;10.358;2023-04-25T15:43:52;12.90;87.50
54158;DHT22;40065;49.894;10.358;2023-04-25T15:48:55;13.30;86.20
54158;DHT22;40065;49.894;10.358;2023-04-25T15:53:57;13.10;85.10
54158;DHT22;40065;49.894;10.358;2023-04-25T15:58:59;12.90;83.10
54158;DHT22;40065;49.894;10.358;2023-04-25T16:04:00;12.90;83.90
54158;DHT22;40065;49.894;10.358;2023-04-25T16:09:03;12.90;85.20
54158;DHT22;40065;49.894;10.358;2023-04-25T16:14:05;13.00;84.80
54158;DHT22;40065;49.894;10.358;2023-04-25T16:19:09;12.90;83.90
54158;DHT22;40065;49.894;10.358;2023-04-25T16:24:11;13.00;83.50
54158;DHT22;40065;49.894;10.358;2023-04-25T16:29:13;12.60;85.30
54158;DHT22;40065;49.894;10.358;2023-04-25T16:34:17;12.80;86.40
54158;DHT22;40065;49.894;10.358;2023-04-25T16:39:19;12.60;86.50
54158;DHT22;40065;49.894;10.358;2023-04-25T16:44:22;12.70;84.70
54158;DHT22;40065;49.894;10.358;2023-04-25T16:49:24;12.60;86.20
54158;DHT22;40065;49.894;10.358;2023-04-25T16:54:26;12.50;87.00
54158;DHT22;40065;49.894;10.358;2023-04-25T16:59:28;12.10;86.00
54158;DHT22;40065;49.894;10.358;2023-04-25T17:04:30;12.10;86.80
54158;DHT22;40065;49.894;10.358;2023-04-25T17:09:32;11.80;87.30
54158;DHT22;40065;49.894;10.358;2023-04-25T17:14:35;11.80;88.60
54158;DHT22;40065;49.894;10.358;2023-04-25T17:19:37;11.80;86.60
54158;DHT22;40065;49.894;10.358;2023-04-25T17:24:40;11.80;88.60
54158;DHT22;40065;49.894;10.358;2023-04-25T17:29:42;11.70;89.50
54158;DHT22;40065;49.894;10.358;2023-04-25T17:34:44;11.50;87.00
54158;DHT22;40065;49.894;10.358;2023-04-25T17:39:46;11.30;87.60
54158;DHT22;40065;49.894;10.358;2023-04-25T17:44:48;11.10;87.10
54158;DHT22;40065;49.894;10.358;2023-04-25T17:49:50;11.10;88.60
54158;DHT22;40065;49.894;10.358;2023-04-25T17:54:52;11.20;90.10
54158;DHT22;40065;49.894;10.358;2023-04-25T17:59:54;11.10;90.70
54158;DHT22;40065;49.894;10.358;2023-04-25T18:04:58;11.00;90.10
54158;DHT22;40065;49.894;10.358;2023-04-25T18:10:00;11.10;91.30
54158;DHT22;40065;49.894;10.358;2023-04-25T18:15:03;11.00;91.20
54158;DHT22;40065;49.894;10.358;2023-04-25T18:20:12;10.90;91.60
54158;DHT22;40065;49.894;10.358;2023-04-25T18:25:16;10.90;91.80
54158;DHT22;40065;49.894;10.358;2023-04-25T18:30:18;10.70;90.50
54158;DHT22;40065;49.894;10.358;2023-04-25T18:35:20;10.60;91.70
54158;DHT22;40065;49.894;10.358;2023-04-25T18:40:23;10.50;90.50
54158;DHT22;40065;49.894;10.358;2023-04-25T18:45:25;10.50;90.00
54158;DHT22;40065;49.894;10.358;2023-04-25T18:50:27;10.40;90.00
54158;DHT22;40065;49.894;10.358;2023-04-25T18:55:29;10.20;90.90
54158;DHT22;40065;49.894;10.358;2023-04-25T19:00:31;10.20;91.60
54158;DHT22;40065;49.894;10.358;2023-04-25T19:05:33;10.20;91.40
54158;DHT22;40065;49.894;10.358;2023-04-25T19:10:35;10.20;91.80
54158;DHT22;40065;49.894;10.358;2023-04-25T19:15:37;10.10;90.90
54158;DHT22;40065;49.894;10.358;2023-04-25T19:20:40;10.10;91.30
54158;DHT22;40065;49.894;10.358;2023-04-25T19:25:42;10.10;91.00
54158;DHT22;40065;49.894;10.358;2023-04-25T19:30:44;10.20;90.80
54158;DHT22;40065;49.894;10.358;2023-04-25T19:35:47;10.00;91.00
54158;DHT22;40065;49.894;10.358;2023-04-25T19:40:48;10.30;90.90
54158;DHT22;40065;49.894;10.358;2023-04-25T19:45:51;9.90;90.10
54158;DHT22;40065;49.894;10.358;2023-04-25T19:50:52;9.90;90.70
54158;DHT22;40065;49.894;10.358;2023-04-25T19:55:54;9.70;91.80
54158;DHT22;40065;49.894;10.358;2023-04-25T20:00:56;9.60;91.70
54158;DHT22;40065;49.894;10.358;2023-04-25T20:05:58;9.50;91.70
54158;DHT22;40065;49.894;10.358;2023-04-25T20:11:00;9.40;92.30
54158;DHT22;40065;49.894;10.358;2023-04-25T20:16:02;9.50;92.00
54158;DHT22;40065;49.894;10.358;2023-04-25T20:21:05;9.40;92.60
54158;DHT22;40065;49.894;10.358;2023-04-25T20:26:09;9.20;93.20
54158;DHT22;40065;49.894;10.358;2023-04-25T20:31:12;9.20;93.20
54158;DHT22;40065;49.894;10.358;2023-04-25T20:36:14;9.10;93.50
54158;DHT22;40065;49.894;10.358;2023-04-25T20:41:16;9.20;93.00
54158;DHT22;40065;49.894;10.358;2023-04-25T20:46:18;9.10;93.20
54158;DHT22;40065;49.894;10.358;2023-04-25T20:51:20;9.00;93.50
54158;DHT22;40065;49.894;10.358;2023-04-25T20:56:22;8.70;94.20
54158;DHT22;40065;49.894;10.358;2023-04-25T21:01:25;8.50;94.80
54158;DHT22;40065;49.894;10.358;2023-04-25T21:06:27;8.20;96.00
54158;DHT22;40065;49.894;10.358;2023-04-25T21:11:29;7.70;97.40
54158;DHT22;40065;49.894;10.358;2023-04-25T21:16:31;7.50;98.80
54158;DHT22;40065;49.894;10.358;2023-04-25T21:21:35;7.50;99.20
54158;DHT22;40065;49.894;10.358;2023-04-25T21:26:37;7.30;99.80
54158;DHT22;40065;49.894;10.358;2023-04-25T21:31:39;7.20;99.60
54158;DHT22;40065;49.894;10.358;2023-04-25T21:36:42;7.10;99.90
54158;DHT22;40065;49.894;10.358;2023-04-25T21:41:44;6.90;99.90
54158;DHT22;40065;49.894;10.358;2023-04-25T21:46:46;6.80;99.90
54158;DHT22;40065;49.894;10.358;2023-04-25T21:51:48;6.60;99.90
54158;DHT22;40065;49.894;10.358;2023-04-25T21:56:50;6.60;99.90
54158;DHT22;40065;49.894;10.358;2023-04-25T22:01:52;6.70;99.90
54158;DHT22;40065;49.894;10.358;2023-04-25T22:06:54;6.60;99.90
54158;DHT22;40065;49.894;10.358;2023-04-25T22:11:55;6.50;99.90
54158;DHT22;40065;49.894;10.358;2023-04-25T22:16:59;6.20;99.90
54158;DHT22;40065;49.894;10.358;2023-04-25T22:22:01;6.10;99.90
54158;DHT22;40065;49.894;10.358;2023-04-25T22:27:05;6.00;99.90
54158;DHT22;40065;49.894;10.358;2023-04-25T22:32:07;6.00;99.90
54158;DHT22;40065;49.894;10.358;2023-04-25T22:37:09;6.10;99.90
54158;DHT22;40065;49.894;10.358;2023-04-25T22:42:11;6.10;99.90
54158;DHT22;40065;49.894;10.358;2023-04-25T22:47:13;6.10;99.90
54158;DHT22;40065;49.894;10.358;2023-04-25T22:52:15;6.10;99.90
54158;DHT22;40065;49.894;10.358;2023-04-25T22:57:17;6.10;99.90
54158;DHT22;40065;49.894;10.358;2023-04-25T23:02:20;6.00;99.90
54158;DHT22;40065;49.894;10.358;2023-04-25T23:07:22;6.20;99.90
54158;DHT22;40065;49.894;10.358;2023-04-25T23:12:24;6.10;99.90
54158;DHT22;40065;49.894;10.358;2023-04-25T23:17:26;6.10;99.90
54158;DHT22;40065;49.894;10.358;2023-04-25T23:22:28;5.70;99.90
54158;DHT22;40065;49.894;10.358;2023-04-25T23:27:30;5.50;99.90
54158;DHT22;40065;49.894;10.358;2023-04-25T23:32:32;5.30;99.90
54158;DHT22;40065;49.894;10.358;2023-04-25T23:37:34;5.10;99.90
54158;DHT22;40065;49.894;10.358;2023-04-25T23:42:39;5.10;99.90
54158;DHT22;40065;49.894;10.358;2023-04-25T23:47:41;5.00;99.90
54158;DHT22;40065;49.894;10.358;2023-04-25T23:52:43;5.20;99.90
54158;DHT22;40065;49.894;10.358;2023-04-25T23:57:45;4.90;99.90
